Friday, July 20, 2018, 12:43 PM EDT
Back to Local

KCKB, Harrison/marion Regional

Location: Bridgeport, WV, United States Lat: 39.3
Local Time: 12:43 PM EDT (16:43 GMT) Lon: -80.217
Time Zone: US/Eastern Elev: 1204 ft

Show me the last for .
Show Decoded

2018-07-20 11:53 METAR KCKB 201553Z 19006KT 10SM OVC055 29/16 A3003 RMK AO2 SLP153 T02890161 =
2018-07-20 10:53 METAR KCKB 201453Z VRB06KT 10SM CLR 29/16 A3004 RMK AO2 SLP154 T02890161 58004 =
2018-07-20 09:53 METAR KCKB 201353Z 15005KT 10SM CLR 27/16 A3005 RMK AO2 SLP157 T02670156 =
2018-07-20 08:53 METAR KCKB 201253Z 13004KT 10SM BKN065 BKN080 24/14 A3005 RMK AO2 SLP159
                 T02390144 =
2018-07-20 07:53 METAR KCKB 201153Z 14004KT 10SM FEW070 22/14 A3005 RMK AO2 SLP158 T02220139
                 10228 20178 53005 =
2018-07-20 06:53 METAR KCKB 201053Z 00000KT 10SM FEW080 19/14 A3004 RMK AO2 SLP157 T01890139 =
2018-07-20 05:53 METAR KCKB 200953Z AUTO 00000KT 10SM CLR 18/13 A3003 RMK AO2 SLP154 T01830133 =
2018-07-20 04:53 METAR KCKB 200853Z AUTO 10004KT 10SM SCT070 22/13 A3003 RMK AO2 SLP153 T02170133
                 58005 =
2018-07-20 03:53 METAR KCKB 200753Z AUTO 11005KT 10SM BKN075 21/14 A3004 RMK AO2 SLP157 T02110139
                 =
2018-07-20 02:53 METAR KCKB 200653Z AUTO 00000KT 10SM CLR 19/14 A3005 RMK AO2 SLP159 T01890144 =
2018-07-20 01:53 METAR KCKB 200553Z AUTO 00000KT 10SM CLR 20/14 A3005 RMK AO2 SLP159 T02000144
                 10283 20194 50001 =
2018-07-20 00:53 METAR KCKB 200453Z AUTO 00000KT 10SM CLR 21/14 A3006 RMK AO2 SLP162 T02060144
                 403110128 =
2018-07-19 23:53 METAR KCKB 200353Z AUTO 13003KT 10SM CLR 23/14 A3006 RMK AO2 SLP162 T02330144 =
2018-07-19 22:53 METAR KCKB 200253Z 12006KT 10SM CLR 24/15 A3004 RMK AO2 SLP158 T02440150 53008 =
2018-07-19 21:53 METAR KCKB 200153Z 12005KT 10SM CLR 25/16 A3003 RMK AO2 SLP155 T02500161 =
2018-07-19 20:53 METAR KCKB 200053Z 00000KT 10SM CLR 26/16 A3002 RMK AO2 SLP150 T02610156 =
2018-07-19 19:53 METAR KCKB 192353Z 07004KT 10SM CLR 28/16 A3002 RMK AO2 SLP151 T02830156 10311
                 20278 56007 =
2018-07-19 18:53 METAR KCKB 192253Z AUTO VRB03KT 10SM CLR 29/14 A3002 RMK AO2 SLP151 T02940139 =
2018-07-19 17:53 METAR KCKB 192153Z AUTO 00000KT 10SM CLR 31/13 A3004 RMK AO2 SLP156 T03060133 =
2018-07-19 16:53 METAR KCKB 192053Z AUTO 00000KT 10SM 30/13 A3004 RMK AO2 SLP159 T03000133 =
2018-07-19 15:53 METAR KCKB 191953Z 24003KT 10SM CLR 29/13 A3005 RMK AO2 SLP162 T02940133 =
2018-07-19 14:53 METAR KCKB 191853Z 00000KT 10SM CLR 29/14 A3007 RMK AO2 SLP167 T02940139 =
2018-07-19 13:53 METAR KCKB 191753Z 03005KT 10SM CLR 29/13 A3008 RMK AO2 SLP173 T02940133 10294
                 20167 58011 =
2018-07-19 12:53 METAR KCKB 191653Z VRB03KT 10SM CLR 28/13 A3010 RMK AO2 SLP178 T02780133 =

Support USWX by starting your Amazon purchase here.